Time;durP1;ratioP1;P1;durP2;ratioP2;P2;SDS_P1;SDS_P2;PMS_P1;PMS_P2;Temp;Humidity;BMP_temperature;BMP_pressure;BME280_temperature;BME280_humidity;BME280_pressure;Samples;Min_cycle;Max_cycle;Signal;HPM_P1;HPM_P2
2023/08/31 00:00:41;;;;;;;0.98;0.70;;;11.30;99.90;;;;;;4981490;28;20553;-79
2023/08/31 00:03:06;;;;;;;0.85;0.65;;;12.60;99.90;;;;;;4998336;28;20042;-79
2023/08/31 00:05:32;;;;;;;0.80;0.80;;;13.40;99.90;;;;;;5016029;28;20037;-80
2023/08/31 00:07:57;;;;;;;0.60;0.60;;;12.00;99.90;;;;;;5015808;28;20044;-79
2023/08/31 00:10:23;;;;;;;1.08;0.98;;;12.60;99.90;;;;;;5015807;28;20468;-79
2023/08/31 00:12:49;;;;;;;0.95;0.50;;;11.30;99.90;;;;;;4997984;28;20065;-79
2023/08/31 00:15:15;;;;;;;1.50;0.93;;;12.40;99.90;;;;;;4998092;28;20390;-79
2023/08/31 00:17:42;;;;;;;0.70;0.70;;;11.10;99.90;;;;;;5015565;28;20042;-80
2023/08/31 00:20:11;;;;;;;1.20;0.75;;;12.80;99.90;;;;;;5015477;28;20394;-79
2023/08/31 00:22:37;;;;;;;0.70;0.70;;;11.10;99.90;;;;;;5015570;28;20405;-79
2023/08/31 00:25:05;;;;;;;1.10;0.60;;;11.00;99.90;;;;;;5015490;28;20057;-79
2023/08/31 00:27:31;;;;;;;0.95;0.63;;;11.10;99.90;;;;;;4998039;28;20064;-79
2023/08/31 00:29:58;;;;;;;0.88;0.80;;;11.20;99.90;;;;;;4997749;28;20054;-79
2023/08/31 00:32:23;;;;;;;0.63;0.63;;;12.80;99.90;;;;;;5015248;28;20436;-79
2023/08/31 00:34:50;;;;;;;1.30;0.70;;;11.10;99.90;;;;;;5015155;28;20044;-79
2023/08/31 00:37:16;;;;;;;1.10;0.70;;;11.70;99.90;;;;;;4997611;28;20040;-79
2023/08/31 00:39:42;;;;;;;1.13;0.80;;;11.00;99.90;;;;;;5015462;28;20038;-79
2023/08/31 00:42:13;;;;;;;0.75;0.70;;;13.00;99.90;;;;;;5015326;28;20045;-79
2023/08/31 00:44:39;;;;;;;0.73;0.70;;;13.30;99.90;;;;;;5015096;28;20502;-79
2023/08/31 00:47:05;;;;;;;0.60;0.60;;;11.40;99.90;;;;;;5014971;28;20151;-79
2023/08/31 00:49:30;;;;;;;0.77;0.77;;;13.40;99.90;;;;;;4997623;28;20398;-79
2023/08/31 00:51:57;;;;;;;1.00;0.93;;;12.50;99.90;;;;;;4997515;28;20172;-79
2023/08/31 00:54:23;;;;;;;0.80;0.80;;;13.40;99.90;;;;;;5015029;28;20041;-79
2023/08/31 00:56:54;;;;;;;0.80;0.80;;;11.10;99.90;;;;;;5014853;28;20414;-78
2023/08/31 00:59:20;;;;;;;1.05;0.77;;;12.50;99.90;;;;;;5014754;28;20050;-79
2023/08/31 01:02:03;;;;;;;0.95;0.80;;;12.60;99.90;;;;;;5014593;28;20079;-79
2023/08/31 01:04:50;;;;;;;0.60;0.60;;;11.10;99.90;;;;;;4997186;28;20034;-79
2023/08/31 01:07:52;;;;;;;0.60;0.60;;;12.50;99.90;;;;;;4981029;28;20042;-79
2023/08/31 01:10:34;;;;;;;0.82;0.52;;;11.00;99.90;;;;;;4996990;28;20041;-79
2023/08/31 01:13:05;;;;;;;0.73;0.70;;;10.90;99.90;;;;;;4980458;28;20046;-79
2023/08/31 01:15:32;;;;;;;;;;;11.00;99.90;;;;;;4997363;28;20091;-79
2023/08/31 01:18:00;;;;;;;1.15;0.90;;;11.60;99.90;;;;;;4996914;28;19960;-79
2023/08/31 01:20:44;;;;;;;1.83;0.82;;;12.60;99.90;;;;;;4997104;28;20486;-79
2023/08/31 01:23:13;;;;;;;0.70;0.70;;;12.80;99.90;;;;;;5014292;28;20042;-79
2023/08/31 01:25:42;;;;;;;1.00;0.90;;;13.00;99.90;;;;;;4997069;28;20070;-78
2023/08/31 01:28:11;;;;;;;0.60;0.60;;;13.40;99.90;;;;;;4980611;28;20037;-78
2023/08/31 01:30:36;;;;;;;0.60;0.60;;;10.80;99.90;;;;;;4997030;28;20048;-78
2023/08/31 01:33:02;;;;;;;1.23;0.90;;;10.00;99.90;;;;;;5014627;28;20046;-78
2023/08/31 01:35:46;;;;;;;0.95;0.82;;;10.60;99.90;;;;;;5014725;28;20041;-78
2023/08/31 01:38:16;;;;;;;1.45;0.80;;;12.90;99.90;;;;;;4997077;28;20498;-79
2023/08/31 01:40:59;;;;;;;1.55;0.90;;;12.50;99.90;;;;;;5014308;28;20041;-79
2023/08/31 01:43:27;;;;;;;0.77;0.70;;;10.50;99.90;;;;;;4996718;28;20042;-79
2023/08/31 01:45:53;;;;;;;1.35;0.70;;;9.80;99.90;;;;;;5014100;28;20092;-79
2023/08/31 01:48:19;;;;;;;0.98;0.60;;;12.90;99.90;;;;;;4996747;28;20436;-85
2023/08/31 01:50:45;;;;;;;2.45;0.75;;;10.30;99.90;;;;;;4980568;28;20145;-85
2023/08/31 01:53:10;;;;;;;1.55;0.60;;;10.50;99.90;;;;;;4980271;28;20069;-85
2023/08/31 01:55:37;;;;;;;0.68;0.60;;;10.50;99.90;;;;;;4996230;28;20066;-85
2023/08/31 01:58:03;;;;;;;0.75;0.63;;;10.50;99.90;;;;;;4980189;28;20084;-85
2023/08/31 02:00:34;;;;;;;1.05;0.70;;;10.50;99.90;;;;;;4980281;28;20073;-80
2023/08/31 02:03:00;;;;;;;1.10;0.77;;;10.30;99.90;;;;;;5013716;28;20050;-80
2023/08/31 02:05:26;;;;;;;0.70;0.68;;;12.60;99.90;;;;;;4996474;28;20038;-80
2023/08/31 02:07:51;;;;;;;1.77;0.93;;;10.20;99.90;;;;;;5012440;28;20065;-79
2023/08/31 02:10:17;;;;;;;0.88;0.70;;;12.00;99.90;;;;;;4996369;28;20042;-86
2023/08/31 02:12:42;;;;;;;1.05;0.63;;;10.20;99.90;;;;;;4996030;28;20132;-86
2023/08/31 02:15:09;;;;;;;0.50;0.50;;;10.40;99.90;;;;;;4995999;28;20046;-86
2023/08/31 02:17:35;;;;;;;1.80;0.95;;;10.40;99.90;;;;;;4979758;28;20445;-86
2023/08/31 02:20:06;;;;;;;0.60;0.60;;;10.50;99.90;;;;;;4979719;28;20049;-79
2023/08/31 02:22:34;;;;;;;1.02;0.60;;;11.50;99.90;;;;;;4996031;28;20053;-79
2023/08/31 02:25:00;;;;;;;0.68;0.68;;;10.30;99.90;;;;;;5013124;28;20044;-78
2023/08/31 02:27:26;;;;;;;0.95;0.60;;;10.40;99.90;;;;;;5013496;28;20406;-78
2023/08/31 02:29:52;;;;;;;0.57;0.57;;;10.30;99.90;;;;;;5013507;28;20046;-79
2023/08/31 02:32:18;;;;;;;1.00;0.90;;;10.40;99.90;;;;;;5013557;28;20042;-79
2023/08/31 02:34:43;;;;;;;0.85;0.70;;;12.40;99.90;;;;;;5013500;28;20046;-79
2023/08/31 02:37:09;;;;;;;1.15;0.73;;;12.40;99.90;;;;;;4995835;28;20042;-79
2023/08/31 02:39:34;;;;;;;0.98;0.80;;;12.80;99.90;;;;;;5013383;28;20494;-78
2023/08/31 02:42:00;;;;;;;0.90;0.73;;;10.30;99.90;;;;;;5013517;28;20041;-79
2023/08/31 02:44:26;;;;;;;0.50;0.50;;;12.50;99.90;;;;;;5013490;28;20438;-79
2023/08/31 02:46:51;;;;;;;1.10;0.70;;;10.20;99.90;;;;;;4996129;28;20033;-79
2023/08/31 02:49:17;;;;;;;1.27;0.73;;;12.70;99.90;;;;;;4995700;28;20132;-79
2023/08/31 02:51:42;;;;;;;0.65;0.65;;;12.60;99.90;;;;;;4995686;28;20052;-79
2023/08/31 02:54:08;;;;;;;0.95;0.70;;;11.50;99.90;;;;;;5013288;28;20496;-79
2023/08/31 02:56:34;;;;;;;1.08;0.98;;;10.40;99.90;;;;;;5013118;28;20050;-79
2023/08/31 02:58:59;;;;;;;1.02;0.85;;;12.70;99.90;;;;;;5013530;28;20088;-80
2023/08/31 03:01:25;;;;;;;2.13;1.10;;;12.10;99.90;;;;;;5013207;28;20037;-79
2023/08/31 03:03:50;;;;;;;0.65;0.65;;;12.80;99.90;;;;;;4995663;28;20046;-79
2023/08/31 03:06:17;;;;;;;0.80;0.80;;;10.30;99.90;;;;;;4995490;28;20121;-79
2023/08/31 03:08:43;;;;;;;0.77;0.70;;;11.90;99.90;;;;;;4995484;28;20033;-86
2023/08/31 03:11:08;;;;;;;1.13;1.02;;;12.60;99.90;;;;;;4995515;28;20562;-85
2023/08/31 03:13:34;;;;;;;1.00;1.00;;;10.40;99.90;;;;;;5012940;28;20045;-86
2023/08/31 03:16:00;;;;;;;1.15;0.90;;;11.80;99.90;;;;;;4995511;28;20137;-85
2023/08/31 03:18:26;;;;;;;1.00;0.90;;;11.60;99.90;;;;;;4995381;28;20053;-86
2023/08/31 03:20:52;;;;;;;1.92;1.05;;;10.40;99.90;;;;;;4979056;28;20489;-85
2023/08/31 03:23:18;;;;;;;0.88;0.85;;;10.40;99.90;;;;;;4995803;28;20482;-85
2023/08/31 03:25:43;;;;;;;0.75;0.60;;;10.50;99.90;;;;;;4995417;28;20042;-85
2023/08/31 03:28:09;;;;;;;0.65;0.65;;;10.40;99.90;;;;;;4995455;28;20038;-85
2023/08/31 03:30:35;;;;;;;1.02;0.80;;;10.40;99.90;;;;;;4979560;28;20400;-86
2023/08/31 03:33:02;;;;;;;1.55;0.90;;;10.40;99.90;;;;;;4979247;28;20038;-85
2023/08/31 03:35:28;;;;;;;0.88;0.80;;;10.50;99.90;;;;;;4980503;28;20401;-86
2023/08/31 03:37:54;;;;;;;0.90;0.90;;;9.70;99.90;;;;;;4999327;28;20045;-87
2023/08/31 03:40:21;;;;;;;0.82;0.82;;;10.50;99.90;;;;;;4998706;28;20132;-87
2023/08/31 03:42:47;;;;;;;0.93;0.70;;;10.60;99.90;;;;;;4982622;28;20034;-85
2023/08/31 03:45:12;;;;;;;0.75;0.68;;;10.60;99.90;;;;;;4998867;28;20563;-82
2023/08/31 03:47:38;;;;;;;0.73;0.73;;;10.60;99.90;;;;;;4982441;28;20041;-86
2023/08/31 03:50:05;;;;;;;0.80;0.80;;;10.60;99.90;;;;;;4998536;28;20045;-85
2023/08/31 03:52:30;;;;;;;0.93;0.80;;;10.60;99.90;;;;;;4982440;28;20042;-86
2023/08/31 03:54:56;;;;;;;1.05;0.80;;;10.70;99.90;;;;;;4998623;28;20446;-88
2023/08/31 03:57:22;;;;;;;1.60;0.77;;;10.70;99.90;;;;;;4998481;28;20077;-85
2023/08/31 03:59:47;;;;;;;0.70;0.70;;;11.90;99.90;;;;;;4982558;28;20034;-87
2023/08/31 04:02:13;;;;;;;2.03;0.98;;;10.70;99.90;;;;;;4983322;28;20455;-86
2023/08/31 04:04:39;;;;;;;0.70;0.70;;;10.70;99.90;;;;;;5001418;28;20445;-86
2023/08/31 04:07:06;;;;;;;1.10;0.75;;;10.80;99.90;;;;;;4984515;28;20034;-87
2023/08/31 04:09:32;;;;;;;0.70;0.70;;;12.30;99.90;;;;;;4996992;28;20030;-85
2023/08/31 04:11:57;;;;;;;0.80;0.80;;;10.80;99.90;;;;;;5008033;28;20073;-86
2023/08/31 04:14:23;;;;;;;0.80;0.75;;;12.30;99.90;;;;;;5008108;28;20088;-86
2023/08/31 04:16:50;;;;;;;0.90;0.90;;;10.80;99.90;;;;;;5008089;28;20030;-85
2023/08/31 04:19:17;;;;;;;0.95;0.90;;;10.80;99.90;;;;;;5023746;28;20025;-85
2023/08/31 04:21:43;;;;;;;0.80;0.80;;;12.60;99.90;;;;;;5007056;28;20057;-85
2023/08/31 04:24:09;;;;;;;0.95;0.90;;;10.80;99.90;;;;;;5007349;28;20022;-86
2023/08/31 04:26:34;;;;;;;0.80;0.80;;;10.80;99.90;;;;;;5023710;28;20048;-86
2023/08/31 04:29:01;;;;;;;1.13;0.70;;;10.80;99.90;;;;;;5007393;28;20050;-85
2023/08/31 04:31:26;;;;;;;2.47;1.10;;;10.80;99.90;;;;;;5007353;28;20033;-86
2023/08/31 04:33:55;;;;;;;0.77;0.77;;;12.30;99.90;;;;;;5007602;28;20022;-86
2023/08/31 04:36:21;;;;;;;1.05;0.95;;;10.90;99.90;;;;;;5007656;28;20105;-85
2023/08/31 04:38:48;;;;;;;1.10;1.00;;;10.90;99.90;;;;;;5005073;28;20041;-86
2023/08/31 04:41:14;;;;;;;0.85;0.85;;;10.90;99.90;;;;;;4998496;28;20041;-87
2023/08/31 04:43:40;;;;;;;0.80;0.80;;;10.70;99.90;;;;;;4982652;28;20496;-88
2023/08/31 04:46:06;;;;;;;1.00;0.90;;;10.90;99.90;;;;;;4983533;28;20045;-86
2023/08/31 04:48:32;;;;;;;1.20;1.10;;;10.90;99.90;;;;;;5000183;28;20046;-86
2023/08/31 04:50:58;;;;;;;0.95;0.90;;;10.30;99.90;;;;;;5000516;28;20498;-86
2023/08/31 04:53:24;;;;;;;1.23;1.00;;;11.00;99.90;;;;;;5006779;28;20026;-85
2023/08/31 04:55:50;;;;;;;1.15;1.05;;;11.00;99.90;;;;;;5006837;28;20098;-87
2023/08/31 04:58:15;;;;;;;1.20;1.10;;;11.00;99.90;;;;;;5007160;28;20049;-87
2023/08/31 05:00:41;;;;;;;0.90;0.90;;;11.00;99.90;;;;;;5006969;28;20116;-84
2023/08/31 05:03:07;;;;;;;1.00;0.90;;;12.60;99.90;;;;;;5006808;28;20052;-85
2023/08/31 05:05:32;;;;;;;1.30;1.20;;;11.10;99.90;;;;;;5022904;28;20133;-85
2023/08/31 05:07:58;;;;;;;1.10;1.00;;;11.00;99.90;;;;;;5023117;28;20029;-86
2023/08/31 05:10:24;;;;;;;1.10;1.00;;;11.00;99.90;;;;;;5007015;28;20017;-85
2023/08/31 05:12:50;;;;;;;0.82;0.80;;;11.00;99.90;;;;;;5023079;28;20041;-87
2023/08/31 05:15:16;;;;;;;1.20;1.10;;;10.50;99.90;;;;;;5006832;28;20057;-88
2023/08/31 05:17:41;;;;;;;1.13;1.00;;;11.00;99.90;;;;;;5006667;28;20089;-88
2023/08/31 05:20:09;;;;;;;0.90;0.90;;;10.90;99.90;;;;;;5006317;28;20100;-88
2023/08/31 05:22:35;;;;;;;1.35;1.00;;;10.90;99.90;;;;;;4989001;28;20042;-88
2023/08/31 05:25:01;;;;;;;0.90;0.90;;;10.90;99.90;;;;;;4999999;28;20413;-89
2023/08/31 05:27:32;;;;;;;1.48;1.00;;;12.10;99.90;;;;;;4982862;28;20034;-86
2023/08/31 05:29:58;;;;;;;1.63;1.13;;;12.90;99.90;;;;;;4997454;28;20038;-83
2023/08/31 05:32:27;;;;;;;1.65;1.40;;;13.10;99.90;;;;;;5006557;28;20037;-84
2023/08/31 05:34:53;;;;;;;1.02;0.93;;;11.70;99.90;;;;;;5014556;28;20050;-84
2023/08/31 05:37:21;;;;;;;0.80;0.80;;;10.90;99.90;;;;;;4985665;28;20052;-83
2023/08/31 05:39:50;;;;;;;1.10;1.00;;;10.90;99.90;;;;;;4996010;28;20026;-85
2023/08/31 05:42:16;;;;;;;0.88;0.88;;;12.30;99.90;;;;;;4985752;28;20066;-84
2023/08/31 05:44:42;;;;;;;1.25;1.05;;;11.90;99.90;;;;;;4983992;28;20049;-85
2023/08/31 05:47:07;;;;;;;1.20;1.10;;;11.00;99.90;;;;;;4983271;28;20409;-89
2023/08/31 05:49:33;;;;;;;1.92;1.20;;;11.10;99.90;;;;;;5000109;28;20060;-89
2023/08/31 05:51:58;;;;;;;1.30;1.20;;;10.80;99.90;;;;;;4982458;28;20096;-90
2023/08/31 05:54:24;;;;;;;1.23;1.10;;;12.70;99.90;;;;;;4982789;28;20465;-87
2023/08/31 05:56:50;;;;;;;1.38;1.05;;;13.30;99.90;;;;;;4998990;28;20080;-86
2023/08/31 05:59:15;;;;;;;0.93;0.93;;;12.20;99.90;;;;;;4998753;28;20053;-84
2023/08/31 06:01:41;;;;;;;1.50;1.25;;;11.40;99.90;;;;;;4982131;28;20051;-85
2023/08/31 06:04:07;;;;;;;1.25;1.13;;;13.40;99.90;;;;;;4981235;28;20065;-84
2023/08/31 06:06:33;;;;;;;0.90;0.90;;;11.50;99.90;;;;;;4996729;28;20046;-86
2023/08/31 06:09:03;;;;;;;1.17;1.08;;;13.50;99.90;;;;;;4980661;28;20401;-86
2023/08/31 06:11:28;;;;;;;1.10;0.90;;;13.90;99.90;;;;;;4980470;28;20053;-83
2023/08/31 06:13:54;;;;;;;1.23;1.10;;;11.90;99.90;;;;;;4980110;28;20561;-83
2023/08/31 06:16:20;;;;;;;0.70;0.70;;;12.40;99.90;;;;;;4996308;28;20046;-82
2023/08/31 06:18:45;;;;;;;0.80;0.80;;;11.50;99.90;;;;;;4995799;28;20042;-83
2023/08/31 06:21:11;;;;;;;1.00;0.80;;;14.00;99.90;;;;;;4979611;28;20068;-84
2023/08/31 06:23:36;;;;;;;1.77;1.25;;;12.70;99.90;;;;;;4996347;28;20037;-82
2023/08/31 06:26:03;;;;;;;1.13;1.02;;;13.00;99.90;;;;;;4996610;28;20038;-84
2023/08/31 06:28:28;;;;;;;1.15;0.98;;;12.10;99.90;;;;;;4980179;28;20125;-82
2023/08/31 06:30:54;;;;;;;1.20;0.90;;;14.10;99.90;;;;;;4979614;28;20147;-82
2023/08/31 06:33:20;;;;;;;0.73;0.73;;;11.80;99.90;;;;;;5013543;28;20042;-82
2023/08/31 06:35:48;;;;;;;0.77;0.77;;;14.60;99.90;;;;;;4979798;28;20404;-82
2023/08/31 06:38:14;;;;;;;1.67;1.30;;;14.50;99.90;;;;;;4979820;28;20052;-81
2023/08/31 06:40:42;;;;;;;0.75;0.75;;;12.50;99.90;;;;;;4979306;28;20132;-82
2023/08/31 06:43:07;;;;;;;0.80;0.80;;;14.70;99.90;;;;;;4979458;28;20040;-81
2023/08/31 06:45:34;;;;;;;0.82;0.77;;;12.60;99.90;;;;;;4979478;28;20117;-82
2023/08/31 06:48:01;;;;;;;1.23;0.80;;;15.20;99.90;;;;;;4995972;28;20092;-82
2023/08/31 06:50:27;;;;;;;0.60;0.60;;;;;;;;;;4979521;28;20077;-82
2023/08/31 06:52:52;;;;;;;0.90;0.73;;;13.20;99.90;;;;;;4996179;28;20371;-82
2023/08/31 06:55:18;;;;;;;0.88;0.75;;;13.30;99.90;;;;;;4979363;28;20069;-83
2023/08/31 06:57:43;;;;;;;0.82;0.68;;;13.40;99.90;;;;;;4995719;28;20486;-82
2023/08/31 07:00:11;;;;;;;0.70;0.70;;;13.40;99.90;;;;;;4979221;28;20057;-81
2023/08/31 07:02:40;;;;;;;1.83;0.98;;;13.30;99.90;;;;;;4979314;28;20045;-81
2023/08/31 07:05:06;;;;;;;0.85;0.85;;;13.50;99.90;;;;;;4995358;28;20038;-82
2023/08/31 07:07:32;;;;;;;0.50;0.50;;;13.70;99.90;;;;;;4979496;28;20037;-81
2023/08/31 07:09:57;;;;;;;0.50;0.50;;;13.80;99.90;;;;;;4996068;28;20042;-81
2023/08/31 07:12:23;;;;;;;1.55;1.00;;;13.90;99.90;;;;;;4983142;28;20038;-81
2023/08/31 07:14:49;;;;;;;1.35;0.63;;;15.00;99.90;;;;;;4983088;28;20045;-82
2023/08/31 07:17:18;;;;;;;0.50;0.50;;;14.00;99.90;;;;;;4982980;28;20080;-81
2023/08/31 07:19:43;;;;;;;0.63;0.52;;;14.10;99.90;;;;;;4982892;28;20092;-81
2023/08/31 07:22:09;;;;;;;1.23;0.80;;;14.20;99.90;;;;;;4998971;28;20082;-83
2023/08/31 07:24:35;;;;;;;1.85;0.70;;;14.30;99.90;;;;;;4999089;28;20116;-86
2023/08/31 07:27:02;;;;;;;0.50;0.50;;;15.80;99.90;;;;;;4998770;28;20120;-83
2023/08/31 07:29:28;;;;;;;1.35;0.90;;;14.40;99.90;;;;;;4999192;28;20500;-84
2023/08/31 07:31:53;;;;;;;0.77;0.50;;;14.50;99.90;;;;;;4982887;28;20038;-84
2023/08/31 07:34:20;;;;;;;0.77;0.60;;;14.60;99.90;;;;;;4999039;28;20056;-83
2023/08/31 07:36:46;;;;;;;0.75;0.65;;;14.50;99.90;;;;;;4998927;28;20046;-85
2023/08/31 07:39:12;;;;;;;0.30;0.30;;;16.60;99.90;;;;;;4998841;28;20397;-84
2023/08/31 07:41:38;;;;;;;0.30;0.30;;;14.20;99.90;;;;;;4982474;28;20030;-84
2023/08/31 07:44:03;;;;;;;0.68;0.52;;;14.90;99.90;;;;;;4998818;28;20096;-85
2023/08/31 07:46:29;;;;;;;0.80;0.35;;;15.00;99.90;;;;;;4998943;28;20044;-84
2023/08/31 07:48:55;;;;;;;0.60;0.38;;;15.10;99.90;;;;;;4998432;28;20045;-86
2023/08/31 07:51:23;;;;;;;0.60;0.60;;;15.70;99.90;;;;;;4982512;28;20037;-86
2023/08/31 07:53:49;;;;;;;0.95;0.45;;;16.70;99.90;;;;;;4998594;28;20046;-86
2023/08/31 07:56:14;;;;;;;0.70;0.55;;;17.20;99.90;;;;;;4998254;28;20062;-86
2023/08/31 07:58:40;;;;;;;0.85;0.60;;;14.70;99.90;;;;;;4998155;28;20057;-85
2023/08/31 08:01:05;;;;;;;0.70;0.40;;;15.50;99.90;;;;;;4981891;28;20402;-85
2023/08/31 08:03:31;;;;;;;1.10;0.50;;;15.50;99.90;;;;;;4998230;28;20038;-85
2023/08/31 08:05:57;;;;;;;0.30;0.30;;;15.50;99.90;;;;;;4982011;28;20552;-86
2023/08/31 08:08:22;;;;;;;1.00;0.40;;;15.60;99.90;;;;;;4982208;28;20046;-84
2023/08/31 08:10:52;;;;;;;0.57;0.47;;;15.90;99.90;;;;;;4998368;28;20080;-84
2023/08/31 08:13:18;;;;;;;0.40;0.40;;;15.80;99.90;;;;;;4998017;28;20103;-85
2023/08/31 08:15:45;;;;;;;1.30;0.77;;;15.70;99.90;;;;;;4998216;28;20622;-85
2023/08/31 08:18:11;;;;;;;0.50;0.47;;;16.10;99.90;;;;;;4982145;28;20050;-83
2023/08/31 08:20:36;;;;;;;0.30;0.30;;;15.90;99.90;;;;;;4982341;28;20042;-85
2023/08/31 08:23:02;;;;;;;0.57;0.40;;;16.00;99.90;;;;;;4996666;28;20046;-84
2023/08/31 08:25:28;;;;;;;1.85;0.88;;;15.90;99.90;;;;;;4981615;28;20048;-84
2023/08/31 08:27:53;;;;;;;0.35;0.30;;;16.00;99.90;;;;;;4981878;28;20053;-84
2023/08/31 08:30:19;;;;;;;0.43;0.30;;;16.10;99.90;;;;;;4981763;28;20041;-85
2023/08/31 08:32:45;;;;;;;0.63;0.40;;;16.10;99.90;;;;;;4997800;28;20087;-85
2023/08/31 08:35:10;;;;;;;0.50;0.32;;;16.10;99.90;;;;;;4981711;28;20041;-88
2023/08/31 08:37:39;;;;;;;1.00;0.35;;;16.20;99.90;;;;;;4998069;28;20485;-88
2023/08/31 08:40:05;;;;;;;2.50;0.80;;;16.20;99.90;;;;;;4981517;28;20045;-90
2023/08/31 08:42:32;;;;;;;1.20;0.52;;;16.30;99.90;;;;;;4981096;28;20125;-89
2023/08/31 08:44:58;;;;;;;0.68;0.50;;;16.40;99.90;;;;;;4981720;28;20511;-88
2023/08/31 08:47:27;;;;;;;0.70;0.40;;;18.20;99.90;;;;;;4981724;28;20452;-91
2023/08/31 08:49:54;;;;;;;0.55;0.30;;;16.50;99.90;;;;;;4981399;28;20042;-89
2023/08/31 08:52:20;;;;;;;0.73;0.63;;;17.90;99.90;;;;;;4981049;28;20136;-89
2023/08/31 08:54:47;;;;;;;0.50;0.40;;;18.50;99.90;;;;;;4980776;28;20037;-90
2023/08/31 08:57:13;;;;;;;1.05;0.70;;;18.60;99.90;;;;;;4997797;28;20661;-87
2023/08/31 08:59:39;;;;;;;0.68;0.50;;;16.70;99.90;;;;;;4981021;28;20129;-88
2023/08/31 09:02:07;;;;;;;2.80;0.60;;;18.70;99.90;;;;;;4981196;28;20045;-88
2023/08/31 09:04:33;;;;;;;0.43;0.30;;;17.40;99.90;;;;;;4980821;28;20041;-89
2023/08/31 09:06:58;;;;;;;0.68;0.50;;;17.50;99.90;;;;;;4997069;28;20042;-87
2023/08/31 09:09:24;;;;;;;0.30;0.30;;;16.20;99.90;;;;;;4981028;28;20402;-87
2023/08/31 09:11:49;;;;;;;0.45;0.30;;;16.80;99.90;;;;;;4997358;28;20128;-88
2023/08/31 09:14:17;;;;;;;0.55;0.22;;;19.10;99.90;;;;;;4980668;28;20038;-87
2023/08/31 09:16:47;;;;;;;1.25;0.38;;;17.10;99.90;;;;;;4996788;28;20042;-87
2023/08/31 09:19:23;;;;;;;;;;;17.00;99.90;;;;;;4997401;28;20085;-86
2023/08/31 09:21:51;;;;;;;0.32;0.28;;;17.10;99.90;;;;;;4980345;28;19991;-86
2023/08/31 09:24:20;;;;;;;0.40;0.40;;;18.30;99.90;;;;;;4980925;28;20125;-86
2023/08/31 09:26:53;;;;;;;1.25;0.50;;;16.80;99.90;;;;;;4980893;28;20421;-88
2023/08/31 09:29:19;;;;;;;0.20;0.20;;;16.60;99.90;;;;;;4980908;28;20475;-91
2023/08/31 09:31:46;;;;;;;0.20;0.20;;;17.70;99.90;;;;;;4997262;28;20038;-88
2023/08/31 09:34:12;;;;;;;1.40;0.20;;;17.50;99.90;;;;;;4981128;28;20048;-89
2023/08/31 09:36:38;;;;;;;0.17;0.17;;;18.30;99.90;;;;;;4981218;28;20070;-90
2023/08/31 09:39:07;;;;;;;0.30;0.30;;;16.70;99.90;;;;;;4981453;28;20045;-91
2023/08/31 09:41:34;;;;;;;0.22;0.22;;;17.70;99.90;;;;;;4996485;28;20046;-86
2023/08/31 09:44:17;;;;;;;0.35;0.35;;;18.40;99.90;;;;;;4980114;28;20041;-86
2023/08/31 09:46:43;;;;;;;1.23;0.55;;;15.80;99.90;;;;;;4980609;28;20041;-91
2023/08/31 09:49:13;;;;;;;0.52;0.38;;;17.70;99.90;;;;;;4980779;28;20034;-91
2023/08/31 09:51:44;;;;;;;1.50;0.73;;;15.00;99.90;;;;;;4980532;28;20172;-93
2023/08/31 09:54:14;;;;;;;0.73;0.40;;;15.00;99.90;;;;;;4996725;28;20041;-87
2023/08/31 09:56:42;;;;;;;0.70;0.50;;;16.60;99.90;;;;;;4995875;28;20136;-89
2023/08/31 09:59:09;;;;;;;0.35;0.32;;;13.90;99.90;;;;;;4996178;28;20072;-90
2023/08/31 10:01:35;;;;;;;0.65;0.40;;;14.50;99.90;;;;;;4980050;28;20112;-89
2023/08/31 10:04:03;;;;;;;0.38;0.30;;;14.10;99.90;;;;;;4980185;28;20084;-91
2023/08/31 10:06:30;;;;;;;2.00;0.30;;;15.00;99.90;;;;;;4980101;28;20109;-89
2023/08/31 10:08:56;;;;;;;0.30;0.30;;;16.20;99.90;;;;;;4979893;28;20057;-90
2023/08/31 10:11:25;;;;;;;0.57;0.30;;;14.70;99.90;;;;;;4979867;28;20037;-89
2023/08/31 10:13:53;;;;;;;6.13;0.80;;;14.40;99.90;;;;;;4995710;28;20046;-87
2023/08/31 10:16:19;;;;;;;1.10;0.35;;;15.50;99.90;;;;;;4996005;28;20125;-91
2023/08/31 10:18:45;;;;;;;0.30;0.30;;;16.90;99.90;;;;;;4995841;28;20042;-86
2023/08/31 10:21:15;;;;;;;0.30;0.30;;;17.10;99.90;;;;;;4995693;28;20042;-88
2023/08/31 10:23:45;;;;;;;0.35;0.30;;;15.70;99.90;;;;;;4979707;28;20379;-87
2023/08/31 10:26:11;;;;;;;0.20;0.20;;;16.00;99.90;;;;;;4996109;28;20069;-85
2023/08/31 10:28:42;;;;;;;0.30;0.20;;;16.00;99.90;;;;;;4979497;28;20042;-88
2023/08/31 10:31:17;;;;;;;0.38;0.38;;;16.00;99.90;;;;;;4995860;28;20045;-86
2023/08/31 10:33:54;;;;;;;0.28;0.28;;;17.00;99.90;;;;;;4996486;28;20478;-84
2023/08/31 10:36:20;;;;;;;6.63;0.63;;;16.20;99.90;;;;;;4995610;28;20054;-84
2023/08/31 10:38:58;;;;;;;0.20;0.20;;;16.70;99.90;;;;;;4995646;28;20093;-85
2023/08/31 10:41:24;;;;;;;0.47;0.47;;;16.40;99.90;;;;;;4979865;28;20176;-87
2023/08/31 10:43:57;;;;;;;0.45;0.40;;;17.10;99.90;;;;;;4995628;28;20103;-86
2023/08/31 10:46:29;;;;;;;0.30;0.30;;;17.10;99.90;;;;;;4982054;28;20034;-86
2023/08/31 10:48:59;;;;;;;0.20;0.20;;;17.10;99.90;;;;;;4983536;28;20038;-85
2023/08/31 10:51:26;;;;;;;0.70;0.30;;;19.30;99.90;;;;;;4984042;28;20397;-85
2023/08/31 10:54:03;;;;;;;0.40;0.40;;;17.10;99.90;;;;;;4983331;28;20038;-86
2023/08/31 10:56:30;;;;;;;0.52;0.40;;;16.60;99.90;;;;;;5000023;28;20078;-84
2023/08/31 10:59:00;;;;;;;0.45;0.20;;;17.30;99.90;;;;;;4983720;28;20088;-85
2023/08/31 11:01:54;;;;;;;0.30;0.30;;;19.30;99.90;;;;;;4999755;28;20049;-85
2023/08/31 11:04:25;;;;;;;0.20;0.20;;;17.50;99.90;;;;;;4975296;28;20111;-84
2023/08/31 11:07:16;;;;;;;0.20;0.20;;;17.50;99.90;;;;;;5000695;28;20034;-84
2023/08/31 11:09:43;;;;;;;0.30;0.20;;;17.10;99.90;;;;;;4984248;28;20050;-84
2023/08/31 11:12:09;;;;;;;0.40;0.40;;;17.20;99.90;;;;;;4999845;28;20097;-87
2023/08/31 11:14:35;;;;;;;0.20;0.20;;;17.10;99.90;;;;;;4983362;28;20045;-85
2023/08/31 11:17:04;;;;;;;0.30;0.30;;;17.00;99.90;;;;;;4983244;28;20041;-85
2023/08/31 11:19:29;;;;;;;0.63;0.20;;;17.30;99.90;;;;;;4982982;28;20468;-84
2023/08/31 11:21:55;;;;;;;0.30;0.30;;;17.20;99.90;;;;;;4983456;28;20129;-85
2023/08/31 11:24:21;;;;;;;0.40;0.30;;;17.30;99.90;;;;;;4999389;28;20405;-86
2023/08/31 11:26:51;;;;;;;0.50;0.30;;;17.20;99.90;;;;;;4999946;28;20088;-87
2023/08/31 11:29:17;;;;;;;0.25;0.25;;;17.60;99.90;;;;;;4999944;28;20042;-84
2023/08/31 11:31:43;;;;;;;0.17;0.10;;;17.20;99.90;;;;;;4982659;28;20049;-86
2023/08/31 11:34:16;;;;;;;0.20;0.20;;;17.30;99.90;;;;;;4999203;28;20088;-86
2023/08/31 11:36:43;;;;;;;0.52;0.40;;;17.20;99.90;;;;;;4983624;28;20401;-86
2023/08/31 11:39:12;;;;;;;0.20;0.20;;;17.90;99.90;;;;;;4983554;28;20034;-88
2023/08/31 11:41:41;;;;;;;0.20;0.20;;;;;;;;;;4999981;28;20072;-86
2023/08/31 11:44:13;;;;;;;0.30;0.30;;;17.90;99.90;;;;;;4983346;28;20107;-87
2023/08/31 11:46:41;;;;;;;0.68;0.60;;;18.10;99.90;;;;;;4982835;28;20092;-87
2023/08/31 11:49:07;;;;;;;0.35;0.35;;;18.10;99.90;;;;;;4999636;28;20120;-87
2023/08/31 11:51:34;;;;;;;0.22;0.22;;;18.20;99.90;;;;;;4983608;28;20041;-85
2023/08/31 11:54:03;;;;;;;0.50;0.47;;;18.00;99.50;;;;;;4999683;28;20049;-88
2023/08/31 11:56:58;;;;;;;0.43;0.43;;;18.10;95.00;;;;;;4998999;28;20085;-87
2023/08/31 11:59:25;;;;;;;0.40;0.40;;;20.20;90.40;;;;;;4966522;28;20150;-88
2023/08/31 12:01:50;;;;;;;0.20;0.20;;;18.00;93.60;;;;;;4998718;28;20049;-85
2023/08/31 12:04:20;;;;;;;0.88;0.30;;;18.00;92.50;;;;;;4982000;28;20102;-85
2023/08/31 12:06:55;;;;;;;0.45;0.45;;;18.80;93.50;;;;;;4997921;28;20508;-84
2023/08/31 12:09:22;;;;;;;0.30;0.30;;;18.00;94.40;;;;;;4998257;28;20033;-85
2023/08/31 12:11:51;;;;;;;0.30;0.30;;;18.00;93.60;;;;;;4998702;28;20104;-89
2023/08/31 12:14:24;;;;;;;0.63;0.32;;;18.60;91.10;;;;;;4982166;28;20430;-86
2023/08/31 12:16:52;;;;;;;0.32;0.20;;;18.00;90.50;;;;;;4998720;28;20037;-87
2023/08/31 12:19:28;;;;;;;0.95;0.30;;;18.10;89.30;;;;;;4997806;28;20042;-86
2023/08/31 12:21:54;;;;;;;0.30;0.30;;;19.20;82.70;;;;;;4981670;28;20378;-89
2023/08/31 12:24:19;;;;;;;0.35;0.35;;;19.20;81.00;;;;;;4981612;28;20053;-85
2023/08/31 12:26:45;;;;;;;0.35;0.35;;;18.20;71.50;;;;;;4997801;28;20478;-87
2023/08/31 12:29:11;;;;;;;0.40;0.30;;;18.40;73.50;;;;;;4997513;28;20038;-87
2023/08/31 12:31:37;;;;;;;0.38;0.38;;;20.30;84.30;;;;;;4982017;28;20046;-89
2023/08/31 12:34:05;;;;;;;0.35;0.30;;;20.60;92.20;;;;;;4981315;28;20470;-88
2023/08/31 12:36:32;;;;;;;0.40;0.40;;;20.50;89.00;;;;;;4981616;28;20572;-90
2023/08/31 12:39:01;;;;;;;0.57;0.40;;;20.80;86.40;;;;;;4981414;28;20048;-87
2023/08/31 12:41:29;;;;;;;0.60;0.30;;;18.40;87.60;;;;;;4981539;28;20045;-87
2023/08/31 12:43:55;;;;;;;0.55;0.50;;;18.30;91.30;;;;;;4981115;28;20091;-87
2023/08/31 12:46:20;;;;;;;0.45;0.45;;;17.60;85.60;;;;;;4997469;28;20429;-86
2023/08/31 12:48:48;;;;;;;0.75;0.50;;;17.90;86.00;;;;;;4997238;28;20489;-84